Time;durP1;ratioP1;P1;durP2;ratioP2;P2;SDS_P1;SDS_P2;PMS_P1;PMS_P2;Temp;Humidity;BMP_temperature;BMP_pressure;BME280_temperature;BME280_humidity;BME280_pressure;Samples;Min_cycle;Max_cycle;Signal;HPM_P1;HPM_P2
2022/06/26 00:01:30;;;;;;;20.97;19.47;;;22.30;1.00;;;;;;5027955;28;20983;-54
2022/06/26 00:03:55;;;;;;;21.87;20.00;;;22.30;1.00;;;;;;5027738;28;20496;-54
2022/06/26 00:06:24;;;;;;;21.00;19.40;;;22.20;1.00;;;;;;5029359;28;20486;-54
2022/06/26 00:08:50;;;;;;;21.13;19.40;;;22.10;1.00;;;;;;5028633;28;20193;-55
2022/06/26 00:11:22;;;;;;;20.73;19.10;;;22.10;1.00;;;;;;5032198;28;20432;-54
2022/06/26 00:13:48;;;;;;;21.00;19.40;;;22.10;1.00;;;;;;5034229;28;20275;-54
2022/06/26 00:16:22;;;;;;;21.73;19.90;;;22.10;1.00;;;;;;5033800;28;20435;-54
2022/06/26 00:18:50;;;;;;;22.20;20.50;;;22.10;1.00;;;;;;5030550;28;20459;-56
2022/06/26 00:21:22;;;;;;;22.23;20.37;;;22.00;1.00;;;;;;5032070;28;20470;-54
2022/06/26 00:23:49;;;;;;;20.60;18.93;;;21.90;1.00;;;;;;5033105;28;20461;-56
2022/06/26 00:26:23;;;;;;;21.93;20.33;;;21.80;1.00;;;;;;5032577;28;20459;-54
2022/06/26 00:28:49;;;;;;;21.13;19.63;;;21.90;1.00;;;;;;5032305;28;21025;-56
2022/06/26 00:31:25;;;;;;;21.37;19.60;;;21.90;1.00;;;;;;5033234;28;20409;-56
2022/06/26 00:33:51;;;;;;;22.80;20.80;;;21.90;1.00;;;;;;5037278;28;20172;-55
2022/06/26 00:36:26;;;;;;;21.47;19.50;;;21.80;1.00;;;;;;5032781;28;20840;-54
2022/06/26 00:38:52;;;;;;;20.90;19.33;;;21.90;1.00;;;;;;5032311;28;20203;-54
2022/06/26 00:41:21;;;;;;;19.67;18.00;;;21.80;1.00;;;;;;5033618;28;20431;-53
2022/06/26 00:43:47;;;;;;;22.40;20.27;;;21.80;1.00;;;;;;5032071;28;20219;-56
2022/06/26 00:46:25;;;;;;;21.87;19.87;;;21.70;1.00;;;;;;5042612;28;20455;-54
2022/06/26 00:48:52;;;;;;;21.20;19.50;;;21.70;1.00;;;;;;5032187;28;20208;-55
2022/06/26 00:51:27;;;;;;;22.20;20.30;;;21.80;1.00;;;;;;5037263;28;20457;-55
2022/06/26 00:53:53;;;;;;;22.07;20.23;;;21.80;1.00;;;;;;5030676;28;20524;-57
2022/06/26 00:56:33;;;;;;;21.87;19.97;;;21.70;1.00;;;;;;5030641;28;20479;-54
2022/06/26 00:58:59;;;;;;;21.13;19.57;;;;;;;;;;5030685;28;20512;-54
2022/06/26 01:01:34;;;;;;;20.87;19.00;;;21.70;1.00;;;;;;5031814;28;20425;-55
2022/06/26 01:04:01;;;;;;;19.90;18.30;;;21.60;1.00;;;;;;5032036;28;20417;-52
2022/06/26 01:06:27;;;;;;;21.07;19.30;;;21.60;1.00;;;;;;5029473;28;20558;-54
2022/06/26 01:08:54;;;;;;;21.80;19.90;;;21.50;1.00;;;;;;5039489;28;20513;-55
2022/06/26 01:11:32;;;;;;;19.67;17.90;;;21.50;1.00;;;;;;5032011;28;20446;-53
2022/06/26 01:13:58;;;;;;;19.50;18.00;;;21.40;1.00;;;;;;5031353;28;20478;-55
2022/06/26 01:16:24;;;;;;;20.90;19.10;;;21.40;1.00;;;;;;5032453;28;20483;-55
2022/06/26 01:18:55;;;;;;;18.93;17.50;;;21.40;1.00;;;;;;5031550;28;20451;-54
2022/06/26 01:21:23;;;;;;;20.10;18.50;;;21.40;1.00;;;;;;5030149;28;20447;-54
2022/06/26 01:23:49;;;;;;;20.03;18.30;;;21.40;1.00;;;;;;5030837;28;20479;-55
2022/06/26 01:26:24;;;;;;;20.47;18.70;;;21.40;1.00;;;;;;5031006;28;20488;-53
2022/06/26 01:28:50;;;;;;;19.80;18.20;;;21.30;1.00;;;;;;5031064;28;20447;-56
2022/06/26 01:31:21;;;;;;;20.70;19.10;;;21.30;1.00;;;;;;5040251;28;20450;-54
2022/06/26 01:33:47;;;;;;;21.23;19.33;;;21.40;1.00;;;;;;5049806;28;20558;-54
2022/06/26 01:36:25;;;;;;;19.77;18.20;;;21.30;1.00;;;;;;5030817;28;20451;-54
2022/06/26 01:38:51;;;;;;;21.63;19.90;;;21.30;1.00;;;;;;5030133;28;20473;-53
2022/06/26 01:41:27;;;;;;;19.30;17.70;;;21.20;1.00;;;;;;5030320;28;20455;-54
2022/06/26 01:43:53;;;;;;;21.30;19.47;;;21.30;1.00;;;;;;5028751;28;20271;-54
2022/06/26 01:46:34;;;;;;;21.77;20.07;;;21.20;1.00;;;;;;5031555;28;20885;-56
2022/06/26 01:48:59;;;;;;;19.93;18.03;;;21.20;1.00;;;;;;5030093;28;20185;-55
2022/06/26 01:51:28;;;;;;;20.30;18.57;;;21.20;1.00;;;;;;5031778;28;20518;-52
2022/06/26 01:53:53;;;;;;;19.50;17.87;;;20.10;1.00;;;;;;5030742;28;20539;-53
2022/06/26 01:56:26;;;;;;;20.47;18.77;;;21.20;1.00;;;;;;5031640;28;20421;-57
2022/06/26 01:58:52;;;;;;;21.80;19.53;;;21.20;1.00;;;;;;5028592;28;20189;-55
2022/06/26 02:01:23;;;;;;;20.80;18.80;;;21.20;1.00;;;;;;5031379;28;20863;-56
2022/06/26 02:03:49;;;;;;;21.03;19.20;;;21.20;1.00;;;;;;5030488;28;20189;-52
2022/06/26 02:06:18;;;;;;;21.00;19.40;;;21.10;1.00;;;;;;5031346;28;20474;-54
2022/06/26 02:08:43;;;;;;;20.57;18.77;;;21.10;1.00;;;;;;5029156;28;21003;-55
2022/06/26 02:14:09;;;;;;;20.33;18.73;;;21.10;1.00;;;;;;5026802;28;20278;-53
2022/06/26 02:16:37;;;;;;;21.87;19.70;;;21.10;1.00;;;;;;5031098;28;20447;-53
2022/06/26 02:19:03;;;;;;;20.97;19.10;;;21.10;1.00;;;;;;5028443;28;20517;-54
2022/06/26 02:21:28;;;;;;;20.03;18.30;;;21.10;1.00;;;;;;5031082;28;20443;-55
2022/06/26 02:23:55;;;;;;;21.70;19.80;;;21.10;1.00;;;;;;5029838;28;20245;-52
2022/06/26 02:26:30;;;;;;;20.40;18.70;;;21.10;1.00;;;;;;5031310;28;20677;-56
2022/06/26 02:28:55;;;;;;;20.30;18.60;;;21.10;1.00;;;;;;5029872;28;20466;-55
2022/06/26 02:31:27;;;;;;;20.90;19.20;;;21.00;1.00;;;;;;5031054;28;20435;-55
2022/06/26 02:33:53;;;;;;;21.07;19.27;;;21.00;1.00;;;;;;5027831;28;20565;-53
2022/06/26 02:36:24;;;;;;;21.37;19.50;;;21.00;1.00;;;;;;5030879;28;20445;-53
2022/06/26 02:38:50;;;;;;;21.77;19.80;;;20.90;1.00;;;;;;5029172;28;20455;-54
2022/06/26 02:41:22;;;;;;;21.50;19.60;;;21.00;1.00;;;;;;5030683;28;20472;-55
2022/06/26 02:43:47;;;;;;;20.10;18.50;;;21.00;1.00;;;;;;5027572;28;20199;-56
2022/06/26 02:46:20;;;;;;;22.17;20.10;;;21.00;1.00;;;;;;5028126;28;20467;-54
2022/06/26 02:48:47;;;;;;;21.37;19.57;;;20.90;1.00;;;;;;5029918;28;20207;-53
2022/06/26 02:51:25;;;;;;;22.33;20.43;;;20.90;1.00;;;;;;5028059;28;20478;-55
2022/06/26 02:53:51;;;;;;;20.00;18.20;;;20.60;1.00;;;;;;5029984;28;20475;-53
2022/06/26 02:56:23;;;;;;;22.27;20.00;;;20.90;1.00;;;;;;5029183;28;20456;-53
2022/06/26 02:58:49;;;;;;;22.17;20.13;;;21.00;1.00;;;;;;5030293;28;20446;-54
2022/06/26 03:01:20;;;;;;;23.60;21.70;;;21.00;1.00;;;;;;5029006;28;20940;-56
2022/06/26 03:03:46;;;;;;;22.73;20.67;;;21.10;1.00;;;;;;5030043;28;20259;-54
2022/06/26 03:06:24;;;;;;;23.00;21.00;;;21.10;1.00;;;;;;5028936;28;20530;-55
2022/06/26 03:08:49;;;;;;;23.87;21.67;;;21.00;1.00;;;;;;5029979;28;20188;-54
2022/06/26 03:11:21;;;;;;;22.87;20.90;;;21.00;1.00;;;;;;5028840;28;20470;-54
2022/06/26 03:13:47;;;;;;;21.53;19.73;;;20.90;1.00;;;;;;5030673;28;20181;-54
2022/06/26 03:16:25;;;;;;;22.93;20.93;;;20.90;1.00;;;;;;5027899;28;21075;-53
2022/06/26 03:18:50;;;;;;;23.03;20.97;;;21.00;1.00;;;;;;5028928;28;20188;-54
2022/06/26 03:21:22;;;;;;;23.10;21.20;;;21.00;1.00;;;;;;5029846;28;20406;-54
2022/06/26 03:24:02;;;;;;;24.20;22.03;;;21.00;1.00;;;;;;5028506;28;20342;-53
2022/06/26 03:26:33;;;;;;;23.70;21.60;;;21.00;1.00;;;;;;5029004;28;20437;-56
2022/06/26 03:29:00;;;;;;;22.87;20.87;;;21.20;1.00;;;;;;5025687;28;20447;-55
2022/06/26 03:31:27;;;;;;;21.87;19.97;;;21.20;1.00;;;;;;5033601;28;20435;-58
2022/06/26 03:33:54;;;;;;;22.27;20.03;;;21.30;1.00;;;;;;5028528;28;20446;-56
2022/06/26 03:36:34;;;;;;;22.20;20.30;;;21.40;1.00;;;;;;5029066;28;20447;-57
2022/06/26 03:39:01;;;;;;;20.13;18.33;;;21.60;1.00;;;;;;5029600;28;20451;-56
2022/06/26 03:41:27;;;;;;;18.43;16.90;;;21.70;1.00;;;;;;5041529;28;20440;-52
2022/06/26 03:43:53;;;;;;;18.77;17.10;;;21.80;1.00;;;;;;5036699;28;20424;-55
2022/06/26 03:46:22;;;;;;;19.27;17.27;;;21.90;1.00;;;;;;5032166;28;20652;-54
2022/06/26 03:48:48;;;;;;;17.80;16.30;;;22.10;1.00;;;;;;5028995;28;20530;-55
2022/06/26 03:51:14;;;;;;;20.13;18.33;;;22.10;1.00;;;;;;5029640;28;21016;-54
2022/06/26 03:53:40;;;;;;;18.97;17.37;;;22.40;1.00;;;;;;5028559;28;20191;-55
2022/06/26 03:56:05;;;;;;;19.73;17.93;;;22.50;1.00;;;;;;5029494;28;20754;-53
2022/06/26 03:58:31;;;;;;;19.83;18.03;;;22.50;1.00;;;;;;5040254;28;20447;-54
2022/06/26 04:00:57;;;;;;;22.03;19.83;;;22.40;1.00;;;;;;5028138;28;20188;-54
2022/06/26 04:03:23;;;;;;;20.87;18.97;;;22.30;1.00;;;;;;5029558;28;20435;-54
2022/06/26 04:05:49;;;;;;;21.90;20.10;;;22.10;1.00;;;;;;5027167;28;20522;-52
2022/06/26 04:08:15;;;;;;;24.17;21.73;;;22.00;1.00;;;;;;5029807;28;20189;-55
2022/06/26 04:10:41;;;;;;;21.90;20.00;;;22.00;1.00;;;;;;5027895;28;20467;-55
2022/06/26 04:13:10;;;;;;;24.17;21.97;;;22.00;1.00;;;;;;5029344;28;20193;-56
2022/06/26 04:15:38;;;;;;;25.23;22.47;;;21.80;1.00;;;;;;5037119;28;20462;-54
2022/06/26 04:18:05;;;;;;;22.33;20.33;;;21.80;1.00;;;;;;5038642;28;20509;-55
2022/06/26 04:20:31;;;;;;;25.27;22.10;;;21.70;1.00;;;;;;5027497;28;20428;-53
2022/06/26 04:23:08;;;;;;;23.57;21.53;;;21.70;1.00;;;;;;5026498;28;21040;-53
2022/06/26 04:25:35;;;;;;;25.00;22.63;;;21.80;1.00;;;;;;5027997;28;20535;-54
2022/06/26 04:28:02;;;;;;;22.80;20.60;;;21.90;1.00;;;;;;5030403;28;20493;-59
2022/06/26 04:30:28;;;;;;;25.23;22.73;;;21.80;1.00;;;;;;5028080;28;20769;-53
2022/06/26 04:32:53;;;;;;;24.00;21.80;;;21.80;1.00;;;;;;5025154;28;20454;-53
2022/06/26 04:35:19;;;;;;;23.57;21.47;;;21.90;1.00;;;;;;5028194;28;20185;-53
2022/06/26 04:37:46;;;;;;;24.30;21.70;;;22.00;1.00;;;;;;5027729;28;20193;-54
2022/06/26 04:40:13;;;;;;;23.30;21.10;;;22.00;1.00;;;;;;5027688;28;20258;-54
2022/06/26 04:42:39;;;;;;;24.77;22.47;;;22.10;1.00;;;;;;5028130;28;20485;-56
2022/06/26 04:45:06;;;;;;;24.30;22.10;;;22.30;1.00;;;;;;5027457;28;21026;-55
2022/06/26 04:47:32;;;;;;;23.97;21.47;;;22.40;1.00;;;;;;5029377;28;20466;-53
2022/06/26 04:49:57;;;;;;;24.47;22.17;;;22.40;1.00;;;;;;5027263;28;20769;-54
2022/06/26 04:52:23;;;;;;;23.93;21.53;;;22.50;1.00;;;;;;5027062;28;20668;-57
2022/06/26 04:54:48;;;;;;;25.47;23.07;;;22.50;1.00;;;;;;5028431;28;20836;-55
2022/06/26 04:57:14;;;;;;;24.40;22.00;;;22.60;1.00;;;;;;5030387;28;20323;-53
2022/06/26 04:59:40;;;;;;;22.70;20.80;;;22.30;1.00;;;;;;5030384;28;20189;-55
2022/06/26 05:02:06;;;;;;;24.07;21.70;;;22.70;1.00;;;;;;5031617;28;20654;-52
2022/06/26 05:04:32;;;;;;;25.33;23.03;;;22.80;1.00;;;;;;5032460;28;20185;-54
2022/06/26 05:06:58;;;;;;;23.57;21.47;;;22.80;1.00;;;;;;5032267;28;20864;-55
2022/06/26 05:09:25;;;;;;;24.70;22.13;;;23.00;1.00;;;;;;5032340;28;20199;-53
2022/06/26 05:11:51;;;;;;;24.17;21.83;;;23.10;1.00;;;;;;5031515;28;20988;-54
2022/06/26 05:14:17;;;;;;;24.47;22.17;;;23.20;1.00;;;;;;5032566;28;20460;-55
2022/06/26 05:16:43;;;;;;;26.13;23.17;;;23.20;1.00;;;;;;5031042;28;20422;-54
2022/06/26 05:19:09;;;;;;;24.37;22.17;;;23.40;1.00;;;;;;5034771;28;21018;-55
2022/06/26 05:21:35;;;;;;;24.70;22.60;;;23.40;1.00;;;;;;5031259;28;20472;-56
2022/06/26 05:24:01;;;;;;;23.17;21.17;;;23.50;1.00;;;;;;5031919;28;20773;-57
2022/06/26 05:26:26;;;;;;;23.47;21.40;;;23.60;1.00;;;;;;5030952;28;20208;-53
2022/06/26 05:28:52;;;;;;;21.87;19.77;;;23.70;1.00;;;;;;5031257;28;20184;-53
2022/06/26 05:31:21;;;;;;;23.87;21.53;;;23.80;1.00;;;;;;5030703;28;20185;-54
2022/06/26 05:33:48;;;;;;;22.20;20.00;;;23.80;1.00;;;;;;5030765;28;20647;-55
2022/06/26 05:36:25;;;;;;;21.93;19.73;;;23.80;1.00;;;;;;5031866;28;20454;-54
2022/06/26 05:38:51;;;;;;;21.20;19.40;;;23.70;1.00;;;;;;5029286;28;20447;-55
2022/06/26 05:41:20;;;;;;;22.97;20.67;;;23.90;1.00;;;;;;5030890;28;20447;-55
2022/06/26 05:43:45;;;;;;;21.47;19.57;;;23.90;1.00;;;;;;5028866;28;20232;-53
2022/06/26 05:46:29;;;;;;;21.10;18.93;;;24.00;1.00;;;;;;5031322;28;20451;-52
2022/06/26 05:48:55;;;;;;;22.17;20.00;;;24.10;1.00;;;;;;5030988;28;20623;-55
2022/06/26 05:51:26;;;;;;;21.73;19.70;;;24.20;1.00;;;;;;5040209;28;20504;-54
2022/06/26 05:53:52;;;;;;;19.63;17.93;;;24.30;1.00;;;;;;5033799;28;20181;-56
2022/06/26 05:56:20;;;;;;;20.83;19.07;;;24.50;1.00;;;;;;5031849;28;20443;-55
2022/06/26 05:58:47;;;;;;;20.80;19.03;;;24.60;1.00;;;;;;5028693;28;20189;-56
2022/06/26 06:01:22;;;;;;;20.03;18.37;;;25.00;1.00;;;;;;5030971;28;20455;-55
2022/06/26 06:03:48;;;;;;;20.50;18.87;;;24.90;1.00;;;;;;5030286;28;20469;-55
2022/06/26 06:06:17;;;;;;;18.83;17.23;;;25.20;1.00;;;;;;5029786;28;20438;-53
2022/06/26 06:08:42;;;;;;;19.40;17.80;;;25.20;1.00;;;;;;5030961;28;20196;-54
2022/06/26 06:11:21;;;;;;;18.87;17.27;;;25.10;1.00;;;;;;5029560;28;20625;-53
2022/06/26 06:13:47;;;;;;;20.13;18.33;;;25.10;1.00;;;;;;5026214;28;20185;-54
2022/06/26 06:16:18;;;;;;;19.00;17.10;;;25.20;1.00;;;;;;5029768;28;20443;-56
2022/06/26 06:18:44;;;;;;;18.70;17.30;;;25.20;1.00;;;;;;5028795;28;20189;-54
2022/06/26 06:21:29;;;;;;;20.23;18.20;;;25.40;1.00;;;;;;5030925;28;20522;-53
2022/06/26 06:23:55;;;;;;;19.17;17.57;;;25.40;1.00;;;;;;5029965;28;20224;-55
2022/06/26 06:26:21;;;;;;;17.63;16.07;;;25.60;1.00;;;;;;5045944;28;20510;-53
2022/06/26 06:28:47;;;;;;;17.50;16.10;;;25.60;1.00;;;;;;5030810;28;20189;-53
2022/06/26 06:31:24;;;;;;;18.07;16.67;;;25.70;1.00;;;;;;5029938;28;20813;-56
2022/06/26 06:33:50;;;;;;;16.63;15.30;;;25.80;1.00;;;;;;5030216;28;20189;-54
2022/06/26 06:36:17;;;;;;;16.40;15.10;;;26.10;1.00;;;;;;5029586;28;20521;-53
2022/06/26 06:38:43;;;;;;;17.77;16.27;;;26.20;1.00;;;;;;5030351;28;20452;-54
2022/06/26 06:41:18;;;;;;;16.30;14.97;;;26.40;1.00;;;;;;5030285;28;20434;-54
2022/06/26 06:43:46;;;;;;;15.30;14.13;;;26.60;1.00;;;;;;5030392;28;20185;-53
2022/06/26 06:46:29;;;;;;;16.27;14.83;;;26.80;1.00;;;;;;5029232;28;20841;-53
2022/06/26 06:48:55;;;;;;;15.97;14.57;;;27.10;1.00;;;;;;5028946;28;20450;-54
2022/06/26 06:51:24;;;;;;;14.30;13.20;;;27.00;1.00;;;;;;5027227;28;20452;-55
2022/06/26 06:53:50;;;;;;;14.17;13.07;;;27.10;1.00;;;;;;5030829;28;20546;-53
2022/06/26 06:56:18;;;;;;;16.10;14.90;;;27.20;1.00;;;;;;5028020;28;20463;-53
2022/06/26 06:58:44;;;;;;;15.10;14.00;;;27.30;1.00;;;;;;5029948;28;20315;-54
2022/06/26 07:01:16;;;;;;;14.50;13.20;;;27.40;1.00;;;;;;5029712;28;20421;-54
2022/06/26 07:03:42;;;;;;;14.23;12.90;;;27.30;1.00;;;;;;5026507;28;20258;-54
2022/06/26 07:06:13;;;;;;;14.23;13.03;;;27.20;1.00;;;;;;5028757;28;20940;-56
2022/06/26 07:08:39;;;;;;;13.30;12.40;;;27.10;1.00;;;;;;5029228;28;20181;-53
2022/06/26 07:11:05;;;;;;;13.27;12.10;;;27.30;1.00;;;;;;5028409;28;20509;-55
2022/06/26 07:13:30;;;;;;;12.80;11.90;;;27.40;1.00;;;;;;5029515;28;20188;-55
2022/06/26 07:15:56;;;;;;;12.40;11.40;;;;;;;;;;5028950;28;20203;-54
2022/06/26 07:18:24;;;;;;;11.70;10.70;;;27.40;1.00;;;;;;5027920;28;20215;-54
2022/06/26 07:20:50;;;;;;;12.70;11.53;;;27.60;1.00;;;;;;5024644;28;20430;-52
2022/06/26 07:23:16;;;;;;;11.20;10.37;;;27.80;1.00;;;;;;5028669;28;20871;-55
2022/06/26 07:25:42;;;;;;;11.73;10.83;;;28.00;1.00;;;;;;5029327;28;20475;-55
2022/06/26 07:28:08;;;;;;;11.10;10.30;;;28.20;1.00;;;;;;5029832;28;20299;-53
2022/06/26 07:30:34;;;;;;;11.33;10.23;;;28.30;1.00;;;;;;5028924;28;20885;-53
2022/06/26 07:33:04;;;;;;;9.90;9.10;;;28.40;1.00;;;;;;5028574;28;20433;-55
2022/06/26 07:35:30;;;;;;;10.43;9.73;;;28.60;1.00;;;;;;5031728;28;20755;-54
2022/06/26 07:37:56;;;;;;;10.20;9.60;;;28.60;1.00;;;;;;5034209;28;20883;-53
2022/06/26 07:40:21;;;;;;;9.73;9.03;;;28.50;1.00;;;;;;5034742;28;20432;-54
2022/06/26 07:42:47;;;;;;;10.00;9.30;;;28.80;1.00;;;;;;5026844;28;20296;-54
2022/06/26 07:45:13;;;;;;;9.77;9.07;;;29.30;1.00;;;;;;5026459;28;20200;-56
2022/06/26 07:47:38;;;;;;;9.70;9.10;;;29.60;1.00;;;;;;5037614;28;20293;-52
2022/06/26 07:50:04;;;;;;;7.83;7.23;;;29.80;1.00;;;;;;5025978;28;20204;-55
2022/06/26 07:52:30;;;;;;;8.60;8.00;;;29.90;1.00;;;;;;5029172;28;21165;-55
2022/06/26 07:54:56;;;;;;;8.43;7.83;;;;;;;;;;5032229;28;20473;-55
2022/06/26 07:57:21;;;;;;;9.20;8.23;;;29.50;1.00;;;;;;5026890;28;20219;-55
2022/06/26 07:59:47;;;;;;;7.70;7.20;;;29.60;1.00;;;;;;5028753;28;20565;-53
2022/06/26 08:02:13;;;;;;;8.20;7.50;;;29.30;1.00;;;;;;5028359;28;20201;-53
2022/06/26 08:04:38;;;;;;;8.37;7.27;;;29.00;1.00;;;;;;5029651;28;20184;-55
2022/06/26 08:07:04;;;;;;;7.00;6.60;;;28.80;1.00;;;;;;5028896;28;20254;-56
2022/06/26 08:09:30;;;;;;;7.80;7.27;;;29.10;1.00;;;;;;5028275;28;20354;-55
2022/06/26 08:11:55;;;;;;;7.60;7.10;;;29.30;1.00;;;;;;5029174;28;20211;-54
2022/06/26 08:14:21;;;;;;;7.77;7.17;;;29.70;1.00;;;;;;5027257;28;20182;-54
2022/06/26 08:17:28;;;;;;;8.07;7.47;;;29.60;1.00;;;;;;5025385;28;20281;-54
2022/06/26 08:19:54;;;;;;;6.90;6.43;;;29.50;1.00;;;;;;5025093;28;20678;-55
2022/06/26 08:22:20;;;;;;;7.83;7.30;;;29.60;1.00;;;;;;5029101;28;20422;-56
2022/06/26 08:24:45;;;;;;;6.93;6.43;;;29.60;1.00;;;;;;5030297;28;20311;-55
2022/06/26 08:27:11;;;;;;;7.57;6.77;;;29.40;1.00;;;;;;5029561;28;20617;-54
2022/06/26 08:29:38;;;;;;;7.00;5.90;;;29.40;1.00;;;;;;5030643;28;20302;-57
2022/06/26 08:32:04;;;;;;;6.70;6.20;;;29.50;1.00;;;;;;5031913;28;20188;-54
2022/06/26 08:34:30;;;;;;;7.00;6.40;;;29.70;1.00;;;;;;5037396;28;20429;-58
2022/06/26 08:36:56;;;;;;;5.87;5.33;;;30.00;1.00;;;;;;5037338;28;20473;-54
2022/06/26 08:39:24;;;;;;;5.50;5.10;;;30.60;1.00;;;;;;5038552;28;20567;-54
2022/06/26 08:41:52;;;;;;;5.90;5.50;;;30.50;1.00;;;;;;5028458;28;20251;-55
2022/06/26 08:44:18;;;;;;;6.40;5.87;;;30.80;1.00;;;;;;5038645;28;21105;-54
2022/06/26 08:46:46;;;;;;;6.13;5.77;;;31.00;1.00;;;;;;5033776;28;20463;-54
2022/06/26 08:49:16;;;;;;;6.30;5.80;;;30.80;1.00;;;;;;5034895;28;20220;-54
2022/06/26 08:51:43;;;;;;;6.70;6.30;;;30.70;1.00;;;;;;5028886;28;20533;-53
2022/06/26 08:54:12;;;;;;;6.20;5.70;;;30.80;1.00;;;;;;5031921;28;20572;-53
2022/06/26 08:56:42;;;;;;;6.60;6.10;;;30.70;1.00;;;;;;5035193;28;20496;-53
2022/06/26 08:59:13;;;;;;;5.80;5.30;;;30.40;1.00;;;;;;5036356;28;20446;-52
2022/06/26 09:01:40;;;;;;;7.20;6.67;;;30.30;1.00;;;;;;5038917;28;20443;-53
2022/06/26 09:04:07;;;;;;;6.13;5.73;;;30.30;1.00;;;;;;5030291;28;20489;-55
2022/06/26 09:06:36;;;;;;;5.23;4.83;;;30.40;1.00;;;;;;5030755;28;20736;-54
2022/06/26 09:09:27;;;;;;;5.10;4.80;;;30.80;1.00;;;;;;5032130;28;20447;-53
2022/06/26 09:11:58;;;;;;;5.57;5.20;;;31.00;1.00;;;;;;5034296;28;20433;-52
2022/06/26 09:14:25;;;;;;;5.13;4.83;;;30.70;1.00;;;;;;5036146;28;20912;-54
2022/06/26 09:16:52;;;;;;;5.13;4.83;;;30.70;1.00;;;;;;5044889;28;20445;-52
2022/06/26 09:19:20;;;;;;;5.47;5.13;;;30.40;1.00;;;;;;5051230;28;20458;-56
2022/06/26 09:21:49;;;;;;;5.90;5.50;;;30.40;1.00;;;;;;5026973;28;20425;-53
2022/06/26 09:24:17;;;;;;;5.83;5.33;;;30.50;1.00;;;;;;5032523;28;20684;-53
2022/06/26 09:26:45;;;;;;;5.43;5.03;;;30.50;1.00;;;;;;5030647;28;20471;-52
2022/06/26 09:29:12;;;;;;;5.37;4.90;;;30.40;1.00;;;;;;5030214;28;20455;-57
2022/06/26 09:31:39;;;;;;;4.63;4.23;;;30.40;1.00;;;;;;5031035;28;20664;-54
2022/06/26 09:34:06;;;;;;;4.50;4.20;;;30.40;1.00;;;;;;5030429;28;20429;-54
2022/06/26 09:36:32;;;;;;;5.83;5.33;;;30.40;1.00;;;;;;5040312;28;20588;-53
2022/06/26 09:38:58;;;;;;;4.87;4.17;;;30.50;1.00;;;;;;5030675;28;20425;-54
2022/06/26 09:41:34;;;;;;;4.67;4.40;;;30.40;1.00;;;;;;5033881;28;20429;-55
2022/06/26 09:44:00;;;;;;;4.50;4.20;;;30.40;1.00;;;;;;5028386;28;20204;-54
2022/06/26 09:46:31;;;;;;;4.40;4.10;;;30.50;1.00;;;;;;5039336;28;20470;-51
2022/06/26 09:48:58;;;;;;;4.20;3.90;;;30.80;1.00;;;;;;5031352;28;20440;-55
2022/06/26 09:51:25;;;;;;;4.30;4.00;;;31.60;1.00;;;;;;5031896;28;20414;-55
2022/06/26 09:53:51;;;;;;;4.17;3.83;;;31.60;1.00;;;;;;5046726;28;20823;-54
2022/06/26 09:56:17;;;;;;;3.93;3.63;;;31.40;1.00;;;;;;5039261;28;20479;-52
2022/06/26 09:58:43;;;;;;;4.20;3.90;;;31.10;1.00;;;;;;5032683;28;20418;-54
2022/06/26 10:07:01;;;;;;;3.93;3.63;;;31.50;1.00;;;;;;5031419;28;20510;-54
2022/06/26 10:09:28;;;;;;;4.70;4.30;;;32.20;1.00;;;;;;5032515;28;20625;-54
2022/06/26 10:11:57;;;;;;;3.90;3.50;;;32.20;1.00;;;;;;5031527;28;20443;-55
2022/06/26 10:14:29;;;;;;;4.10;3.80;;;32.30;1.00;;;;;;5041004;28;20417;-52
2022/06/26 10:17:32;;;;;;;4.33;3.93;;;32.30;1.00;;;;;;5029502;28;20814;-53
2022/06/26 10:20:06;;;;;;;3.90;3.67;;;32.30;1.00;;;;;;5032301;28;22201;-54
2022/06/26 10:22:43;;;;;;;4.40;4.00;;;32.50;1.00;;;;;;5033509;28;20505;-55
2022/06/26 10:25:24;;;;;;;4.07;3.67;;;32.40;1.00;;;;;;5034366;28;20478;-54
2022/06/26 10:27:51;;;;;;;4.00;3.70;;;32.50;1.00;;;;;;5028930;28;20482;-53
2022/06/26 10:30:19;;;;;;;4.40;4.10;;;32.70;1.00;;;;;;5038554;28;21016;-53
2022/06/26 10:32:45;;;;;;;4.20;4.00;;;33.00;1.00;;;;;;5032865;28;20505;-54
2022/06/26 10:35:12;;;;;;;4.40;4.00;;;33.00;1.00;;;;;;5019811;28;20530;-53
2022/06/26 10:37:41;;;;;;;4.40;4.10;;;33.40;1.00;;;;;;5030789;28;20895;-51
2022/06/26 10:43:13;;;;;;;4.20;3.93;;;33.00;1.00;;;;;;5029825;28;20455;-52
2022/06/26 10:45:40;;;;;;;4.33;4.03;;;33.20;1.00;;;;;;5030832;28;20548;-54
2022/06/26 10:48:20;;;;;;;4.30;3.90;;;33.10;1.00;;;;;;5024906;28;20475;-54
2022/06/26 10:50:56;;;;;;;4.27;3.87;;;33.30;1.00;;;;;;5026262;28;20426;-52
2022/06/26 10:53:28;;;;;;;3.70;3.50;;;33.60;1.00;;;;;;5027098;28;20429;-54
2022/06/26 10:55:55;;;;;;;5.13;3.90;;;33.70;1.00;;;;;;5023730;28;20455;-54
2022/06/26 10:58:31;;;;;;;4.10;3.80;;;33.40;1.00;;;;;;5024845;28;20465;-55
2022/06/26 11:00:59;;;;;;;3.97;3.67;;;33.40;1.00;;;;;;5028774;28;20497;-56
2022/06/26 11:03:25;;;;;;;4.30;4.10;;;33.50;1.00;;;;;;5032287;28;20439;-54
2022/06/26 11:05:56;;;;;;;4.10;3.70;;;33.70;1.00;;;;;;5027959;28;20817;-55
2022/06/26 11:08:23;;;;;;;3.70;3.50;;;33.90;1.00;;;;;;5018036;28;21035;-53
2022/06/26 11:10:48;;;;;;;4.10;3.70;;;34.10;1.00;;;;;;5026027;28;20434;-54
2022/06/26 11:13:14;;;;;;;3.70;3.50;;;34.10;1.00;;;;;;5020755;28;20462;-53
2022/06/26 11:15:39;;;;;;;3.93;3.30;;;34.00;1.00;;;;;;5029817;28;20189;-54
2022/06/26 11:18:06;;;;;;;3.47;3.20;;;34.00;1.00;;;;;;5024546;28;20195;-52
2022/06/26 11:20:51;;;;;;;5.23;3.70;;;33.80;1.00;;;;;;5026863;28;20538;-55
2022/06/26 11:23:26;;;;;;;3.80;3.57;;;33.60;1.00;;;;;;5034173;28;20451;-57
2022/06/26 11:26:01;;;;;;;4.50;4.17;;;33.10;1.00;;;;;;5021256;28;20963;-53
2022/06/26 11:28:27;;;;;;;4.20;3.80;;;33.30;1.00;;;;;;5028171;28;20453;-55
2022/06/26 11:30:53;;;;;;;5.00;4.70;;;33.60;1.00;;;;;;5023821;28;20516;-53
2022/06/26 11:33:24;;;;;;;4.67;4.37;;;33.70;1.00;;;;;;5024426;28;20425;-52
2022/06/26 11:35:50;;;;;;;5.40;4.93;;;33.40;1.00;;;;;;5020780;28;20244;-52
2022/06/26 11:38:16;;;;;;;4.50;4.20;;;32.90;1.00;;;;;;5023941;28;20475;-53
2022/06/26 11:40:46;;;;;;;4.63;4.27;;;33.10;1.00;;;;;;5026166;28;20451;-53
2022/06/26 11:43:13;;;;;;;4.53;4.10;;;33.10;1.00;;;;;;5024935;28;20421;-53
2022/06/26 11:45:40;;;;;;;4.70;4.27;;;33.90;1.00;;;;;;5032489;28;20450;-54
2022/06/26 11:48:17;;;;;;;6.23;5.73;;;33.90;1.00;;;;;;5024874;28;20517;-55
2022/06/26 11:50:49;;;;;;;7.60;6.90;;;34.20;1.00;;;;;;5027752;28;20479;-53
2022/06/26 11:53:32;;;;;;;4.83;4.43;;;34.20;1.00;;;;;;5027601;28;20418;-54
2022/06/26 11:56:00;;;;;;;4.60;4.20;;;34.10;1.00;;;;;;5025793;28;20450;-51
2022/06/26 11:58:29;;;;;;;6.17;5.70;;;34.00;1.00;;;;;;5028706;28;20781;-54
2022/06/26 12:01:48;;;;;;;5.00;4.70;;;33.80;1.00;;;;;;5028244;28;20417;-54
2022/06/26 12:04:17;;;;;;;4.90;4.60;;;33.70;1.00;;;;;;5022156;28;21154;-53
2022/06/26 12:06:51;;;;;;;6.13;4.40;;;33.60;1.00;;;;;;5026123;28;20555;-54
2022/06/26 12:09:20;;;;;;;4.43;4.13;;;33.90;1.00;;;;;;5031483;28;20417;-55
2022/06/26 12:11:48;;;;;;;4.80;4.50;;;34.30;1.00;;;;;;5037207;28;20956;-54
2022/06/26 12:14:20;;;;;;;4.93;4.60;;;34.70;1.00;;;;;;5033797;28;20425;-53
2022/06/26 12:16:52;;;;;;;4.63;4.33;;;34.80;1.00;;;;;;5037360;28;20940;-53
2022/06/26 12:19:18;;;;;;;5.87;5.47;;;34.30;1.00;;;;;;5030907;28;20454;-53
2022/06/26 12:21:46;;;;;;;5.03;4.73;;;33.70;1.00;;;;;;5034112;28;20418;-55
2022/06/26 12:24:12;;;;;;;6.90;6.40;;;33.70;1.00;;;;;;5033335;28;20946;-54
2022/06/26 12:27:29;;;;;;;7.50;6.83;;;33.50;1.00;;;;;;5031779;28;20801;-53
2022/06/26 12:29:54;;;;;;;7.47;6.80;;;33.30;1.00;;;;;;5018368;28;20436;-54
2022/06/26 12:32:20;;;;;;;8.40;7.80;;;33.20;1.00;;;;;;5036920;28;20989;-56
2022/06/26 12:34:45;;;;;;;8.23;7.60;;;33.00;1.00;;;;;;5043312;28;20207;-52
2022/06/26 12:37:11;;;;;;;7.83;7.23;;;32.80;1.00;;;;;;5031640;28;20220;-54
2022/06/26 12:39:37;;;;;;;7.50;7.00;;;32.80;1.00;;;;;;5033039;28;20287;-54
2022/06/26 12:42:02;;;;;;;6.97;6.57;;;33.00;1.00;;;;;;5031955;28;20259;-53
2022/06/26 12:44:28;;;;;;;7.90;7.33;;;33.20;1.00;;;;;;5031838;28;20190;-54
2022/06/26 12:46:55;;;;;;;7.70;7.20;;;33.30;1.00;;;;;;5032732;28;20732;-54
2022/06/26 12:49:21;;;;;;;7.07;6.57;;;33.40;1.00;;;;;;5034904;28;20188;-53
2022/06/26 12:55:14;;;;;;;7.07;6.47;;;34.00;1.00;;;;;;5032358;28;20192;-55
2022/06/26 12:57:40;;;;;;;7.67;7.17;;;34.10;1.00;;;;;;5032836;28;20421;-54
2022/06/26 13:00:07;;;;;;;7.87;7.27;;;34.30;1.00;;;;;;5029827;28;20303;-53
2022/06/26 13:02:33;;;;;;;6.73;6.27;;;34.30;1.00;;;;;;5029623;28;20655;-53
2022/06/26 13:04:58;;;;;;;7.20;6.50;;;34.30;1.00;;;;;;5030423;28;20424;-55
2022/06/26 13:07:24;;;;;;;7.10;6.63;;;34.10;1.00;;;;;;5031689;28;20995;-54
2022/06/26 13:09:49;;;;;;;7.20;6.70;;;33.70;1.00;;;;;;5035729;28;20239;-55